createdAt,value
2018-12-30T00:00:12.043Z,2.15
2018-12-30T00:02:42.914Z,1.92
2018-12-30T00:05:13.995Z,2.25
2018-12-30T00:07:45.002Z,1.98
2018-12-30T00:10:15.799Z,1.82
2018-12-30T00:12:46.811Z,2.02
2018-12-30T00:15:18.088Z,2.22
2018-12-30T00:17:48.849Z,2.10
2018-12-30T00:20:19.646Z,2.30
2018-12-30T00:22:50.402Z,1.60
2018-12-30T00:25:21.438Z,2.50
2018-12-30T00:27:52.827Z,2.37
2018-12-30T00:30:23.629Z,2.08
2018-12-30T00:32:54.439Z,2.62
2018-12-30T00:35:25.206Z,2.70
2018-12-30T00:37:55.997Z,2.67
2018-12-30T00:40:27.058Z,2.65
2018-12-30T00:42:57.838Z,2.72
2018-12-30T00:45:28.623Z,2.77
2018-12-30T00:47:59.608Z,2.25
2018-12-30T00:50:30.675Z,2.47
2018-12-30T00:53:01.774Z,2.83
2018-12-30T00:55:32.537Z,2.67
2018-12-30T00:58:06.004Z,2.05
2018-12-30T01:00:39.827Z,2.67
2018-12-30T01:03:11.154Z,2.83
2018-12-30T01:05:41.957Z,2.33
2018-12-30T01:08:12.759Z,2.05
2018-12-30T01:10:43.517Z,2.30
2018-12-30T01:13:14.310Z,2.08
2018-12-30T01:15:45.130Z,2.27
2018-12-30T01:18:17.658Z,2.33
2018-12-30T01:20:48.503Z,2.55
2018-12-30T01:23:19.276Z,3.35
2018-12-30T01:25:50.155Z,2.67
2018-12-30T01:28:20.947Z,2.47
2018-12-30T01:30:51.972Z,2.15
2018-12-30T01:33:22.829Z,2.95
2018-12-30T01:35:53.865Z,2.10
2018-12-30T01:38:25.019Z,2.40
2018-12-30T01:40:56.054Z,2.17
2018-12-30T01:43:26.908Z,2.45
2018-12-30T01:45:57.960Z,2.80
2018-12-30T01:48:28.750Z,2.70
2018-12-30T01:50:59.521Z,2.58
2018-12-30T01:53:30.318Z,2.27
2018-12-30T01:56:01.097Z,3.37
2018-12-30T01:58:32.130Z,2.62
2018-12-30T02:01:03.506Z,3.08
2018-12-30T02:03:34.613Z,1.92
2018-12-30T02:06:05.390Z,2.37
2018-12-30T02:08:36.424Z,2.17
2018-12-30T02:11:07.194Z,2.45
2018-12-30T02:13:37.988Z,3.00
2018-12-30T02:16:08.768Z,2.83
2018-12-30T02:18:39.558Z,2.80
2018-12-30T02:21:10.556Z,1.95
2018-12-30T02:23:41.518Z,2.75
2018-12-30T02:26:12.295Z,2.37
2018-12-30T02:28:43.089Z,2.33
2018-12-30T02:31:14.105Z,2.70
2018-12-30T02:33:44.911Z,3.50
2018-12-30T02:36:15.685Z,2.42
2018-12-30T02:38:46.492Z,2.60
2018-12-30T02:41:17.297Z,2.65
2018-12-30T02:43:48.063Z,2.20
2018-12-30T02:46:19.132Z,3.12
2018-12-30T02:48:49.894Z,2.83
2018-12-30T02:51:20.702Z,2.37
2018-12-30T02:53:51.457Z,2.50
2018-12-30T02:56:22.545Z,2.47
2018-12-30T02:58:53.320Z,3.08
2018-12-30T03:01:24.357Z,3.67
2018-12-30T03:03:55.356Z,2.22
2018-12-30T03:06:26.170Z,2.30
2018-12-30T03:08:57.172Z,2.37
2018-12-30T03:11:28.236Z,2.37
2018-12-30T03:13:58.998Z,2.92
2018-12-30T03:16:30.018Z,2.15
2018-12-30T03:19:00.818Z,3.17
2018-12-30T03:21:31.593Z,2.27
2018-12-30T03:24:02.625Z,2.02
2018-12-30T03:26:33.392Z,3.25
2018-12-30T03:29:04.422Z,2.40
2018-12-30T03:31:35.424Z,2.25
2018-12-30T03:34:06.224Z,3.05
2018-12-30T03:36:36.993Z,2.62
2018-12-30T03:39:08.068Z,2.55
2018-12-30T03:41:38.847Z,2.62
2018-12-30T03:44:09.638Z,2.85
2018-12-30T03:46:40.470Z,2.25
2018-12-30T03:49:11.277Z,1.70
2018-12-30T03:51:42.054Z,2.10
2018-12-30T03:54:12.858Z,2.25
2018-12-30T03:56:43.667Z,2.37
2018-12-30T03:59:14.691Z,2.47
2018-12-30T04:01:45.477Z,2.52
2018-12-30T04:04:16.260Z,2.40
2018-12-30T04:06:47.058Z,2.05
2018-12-30T04:09:17.832Z,2.33
2018-12-30T04:11:48.866Z,2.60
2018-12-30T04:14:19.648Z,2.25
2018-12-30T04:16:50.445Z,2.52
2018-12-30T04:19:21.209Z,2.67
2018-12-30T04:21:52.231Z,3.17
2018-12-30T04:24:23.006Z,2.27
2018-12-30T04:26:53.835Z,2.47
2018-12-30T04:29:24.629Z,2.47
2018-12-30T04:31:55.430Z,2.40
2018-12-30T04:34:26.433Z,2.12
2018-12-30T04:36:57.515Z,2.62
2018-12-30T04:39:28.313Z,2.25
2018-12-30T04:41:59.315Z,1.92
2018-12-30T04:44:30.123Z,2.92
2018-12-30T04:47:00.891Z,2.30
2018-12-30T04:49:31.699Z,2.67
2018-12-30T04:52:02.465Z,2.75
2018-12-30T04:54:33.266Z,2.85
2018-12-30T04:57:04.047Z,2.65
2018-12-30T04:59:34.830Z,1.92
2018-12-30T05:02:05.621Z,3.17
2018-12-30T05:04:36.658Z,2.83
2018-12-30T05:07:10.438Z,3.02
2018-12-30T05:09:41.242Z,2.80
2018-12-30T05:12:12.057Z,2.27
2018-12-30T05:14:42.859Z,2.70
2018-12-30T05:17:13.879Z,2.37
2018-12-30T05:19:44.669Z,2.37
2018-12-30T05:22:15.675Z,2.52
2018-12-30T05:24:46.482Z,2.50
2018-12-30T05:27:17.340Z,2.33
2018-12-30T05:29:48.362Z,2.77
2018-12-30T05:32:19.171Z,2.65
2018-12-30T05:34:49.941Z,2.90
2018-12-30T05:37:20.731Z,1.92
2018-12-30T05:39:51.510Z,2.62
2018-12-30T05:42:22.301Z,2.65
2018-12-30T05:44:53.315Z,2.85
2018-12-30T05:47:24.102Z,2.85
2018-12-30T05:49:54.880Z,2.33
2018-12-30T05:52:25.907Z,2.40
2018-12-30T05:54:56.716Z,3.02
2018-12-30T05:57:27.483Z,2.40
2018-12-30T05:59:58.291Z,2.52
2018-12-30T06:02:29.062Z,2.10
2018-12-30T06:04:59.841Z,2.10
2018-12-30T06:07:30.834Z,1.90
2018-12-30T06:10:01.657Z,2.15
2018-12-30T06:12:32.646Z,2.98
2018-12-30T06:15:03.784Z,2.33
2018-12-30T06:17:34.533Z,2.10
2018-12-30T06:20:05.586Z,3.60
2018-12-30T06:22:36.352Z,2.47
2018-12-30T06:25:07.399Z,3.47
2018-12-30T06:27:38.483Z,2.47
2018-12-30T06:30:09.289Z,2.35
2018-12-30T06:32:40.306Z,2.75
2018-12-30T06:35:11.095Z,2.52
2018-12-30T06:37:42.130Z,1.92
2018-12-30T06:40:12.914Z,2.98
2018-12-30T06:42:43.711Z,3.67
2018-12-30T06:45:14.478Z,2.20
2018-12-30T06:47:45.506Z,2.35
2018-12-30T06:50:16.272Z,2.30
2018-12-30T06:52:47.061Z,2.47
2018-12-30T06:55:17.831Z,2.37
2018-12-30T06:57:48.639Z,2.60
2018-12-30T07:00:19.405Z,2.42
2018-12-30T07:02:50.209Z,2.47
2018-12-30T07:05:20.986Z,2.55
2018-12-30T07:07:52.022Z,2.60
2018-12-30T07:10:22.803Z,1.98
2018-12-30T07:12:53.602Z,2.98
2018-12-30T07:15:24.387Z,2.98
2018-12-30T07:17:55.171Z,1.95
2018-12-30T07:20:25.962Z,2.02
2018-12-30T07:22:56.726Z,2.12
2018-12-30T07:25:27.539Z,2.25
2018-12-30T07:27:58.306Z,2.85
2018-12-30T07:30:29.334Z,2.17
2018-12-30T07:33:00.106Z,2.33
2018-12-30T07:35:31.142Z,2.95
2018-12-30T07:38:01.910Z,2.62
2018-12-30T07:40:32.710Z,2.33
2018-12-30T07:43:03.488Z,3.17
2018-12-30T07:45:34.313Z,2.62
2018-12-30T07:48:05.078Z,2.70
2018-12-30T07:50:35.895Z,2.50
2018-12-30T07:53:13.496Z,2.55
2018-12-30T07:55:39.649Z,2.60
2018-12-30T07:58:10.440Z,2.83
2018-12-30T08:00:41.245Z,2.20
2018-12-30T08:03:12.246Z,3.50
2018-12-30T08:05:43.296Z,2.83
2018-12-30T08:08:14.344Z,2.42
2018-12-30T08:10:46.782Z,2.45
2018-12-30T08:13:17.968Z,2.12
2018-12-30T08:15:49.035Z,2.67
2018-12-30T08:18:20.153Z,2.20
2018-12-30T08:20:50.907Z,2.47
2018-12-30T08:23:23.722Z,2.20
2018-12-30T08:25:54.609Z,2.17
2018-12-30T08:28:25.647Z,2.40
2018-12-30T08:30:56.427Z,2.52
2018-12-30T08:33:27.215Z,2.27
2018-12-30T08:35:57.974Z,2.45
2018-12-30T08:38:28.782Z,2.52
2018-12-30T08:40:59.778Z,2.40
2018-12-30T08:43:30.839Z,2.05
2018-12-30T08:46:01.826Z,3.02
2018-12-30T08:48:32.632Z,2.22
2018-12-30T08:51:03.639Z,2.70
2018-12-30T08:53:34.418Z,1.95
2018-12-30T08:56:05.454Z,2.22
2018-12-30T08:58:36.195Z,1.80
2018-12-30T09:01:07.122Z,2.90
2018-12-30T09:03:37.928Z,2.00
2018-12-30T09:06:08.707Z,1.82
2018-12-30T09:08:39.460Z,2.45
2018-12-30T09:11:10.258Z,2.20
2018-12-30T09:13:41.273Z,2.27
2018-12-30T09:16:12.034Z,1.98
2018-12-30T09:18:42.842Z,2.47
2018-12-30T09:21:13.855Z,2.10
2018-12-30T09:23:44.629Z,2.08
2018-12-30T09:26:15.637Z,2.33
2018-12-30T09:28:46.630Z,1.98
2018-12-30T09:31:17.417Z,2.27
2018-12-30T09:33:48.226Z,2.05
2018-12-30T09:36:18.985Z,2.33
2018-12-30T09:38:49.766Z,1.55
2018-12-30T09:41:20.542Z,2.20
2018-12-30T09:43:51.346Z,2.60
2018-12-30T09:46:22.363Z,2.17
2018-12-30T09:48:53.346Z,2.30
2018-12-30T09:51:24.210Z,2.25
2018-12-30T09:53:55.238Z,1.80
2018-12-30T09:56:26.035Z,3.25
2018-12-30T09:58:56.802Z,3.10
2018-12-30T10:01:27.647Z,2.77
2018-12-30T10:03:58.643Z,2.20
2018-12-30T10:06:29.662Z,3.17
2018-12-30T10:09:00.447Z,2.60
2018-12-30T10:11:31.514Z,2.75
2018-12-30T10:14:02.518Z,2.30
2018-12-30T10:16:33.324Z,2.58
2018-12-30T10:19:04.358Z,2.40
2018-12-30T10:21:35.404Z,2.10
2018-12-30T10:24:06.441Z,2.77
2018-12-30T10:26:37.203Z,2.50
2018-12-30T10:29:08.013Z,2.85
2018-12-30T10:31:38.785Z,2.60
2018-12-30T10:34:09.571Z,2.45
2018-12-30T10:36:40.359Z,2.45
2018-12-30T10:39:11.227Z,2.55
2018-12-30T10:41:41.995Z,2.62
2018-12-30T10:44:12.782Z,2.65
2018-12-30T10:46:43.557Z,2.83
2018-12-30T10:49:14.350Z,2.52
2018-12-30T10:51:45.131Z,2.98
2018-12-30T10:54:16.149Z,2.52
2018-12-30T10:56:46.910Z,2.60
2018-12-30T10:59:17.950Z,3.47
2018-12-30T11:01:48.750Z,2.50
2018-12-30T11:04:19.745Z,2.27
2018-12-30T11:06:50.533Z,2.40
2018-12-30T11:09:21.314Z,2.72
2018-12-30T11:11:52.125Z,2.55
2018-12-30T11:14:23.118Z,2.95
2018-12-30T11:16:54.169Z,2.87
2018-12-30T11:19:25.157Z,2.30
2018-12-30T11:21:56.197Z,2.40
2018-12-30T11:24:27.183Z,2.20
2018-12-30T11:26:59.896Z,2.52
2018-12-30T11:29:30.675Z,2.77
2018-12-30T11:32:01.552Z,3.00
2018-12-30T11:34:32.568Z,2.98
2018-12-30T11:37:03.444Z,2.42
2018-12-30T11:39:34.210Z,2.90
2018-12-30T11:42:05.082Z,3.98
2018-12-30T11:44:35.833Z,2.42
2018-12-30T11:47:06.645Z,2.35
2018-12-30T11:49:37.656Z,2.87
2018-12-30T11:52:08.437Z,2.87
2018-12-30T11:54:39.193Z,2.72
2018-12-30T11:57:09.993Z,3.05
2018-12-30T11:59:40.803Z,2.77
2018-12-30T12:02:11.922Z,3.05
2018-12-30T12:04:42.666Z,2.15
2018-12-30T12:07:13.466Z,3.00
2018-12-30T12:09:44.231Z,2.45
2018-12-30T12:12:15.236Z,2.83
2018-12-30T12:14:46.044Z,2.60
2018-12-30T12:17:17.130Z,2.45
2018-12-30T12:19:48.055Z,3.72
2018-12-30T12:22:18.851Z,2.80
2018-12-30T12:24:49.930Z,3.17
2018-12-30T12:27:20.718Z,2.83
2018-12-30T12:29:51.482Z,3.00
2018-12-30T12:32:22.287Z,2.87
2018-12-30T12:34:53.043Z,2.75
2018-12-30T12:37:24.074Z,3.27
2018-12-30T12:39:54.854Z,2.72
2018-12-30T12:42:25.905Z,3.27
2018-12-30T12:44:56.690Z,3.20
2018-12-30T12:47:27.491Z,3.50
2018-12-30T12:49:58.290Z,3.33
2018-12-30T12:52:29.066Z,3.70
2018-12-30T12:55:00.161Z,4.17
2018-12-30T12:57:31.178Z,4.20
2018-12-30T13:00:01.979Z,3.92
2018-12-30T13:02:32.995Z,4.28
2018-12-30T13:05:04.103Z,5.45
2018-12-30T13:07:35.102Z,5.40
2018-12-30T13:10:08.915Z,4.87
2018-12-30T13:12:39.738Z,6.17
2018-12-30T13:15:10.537Z,4.70
2018-12-30T13:17:41.534Z,4.62
2018-12-30T13:20:12.348Z,4.83
2018-12-30T13:22:43.118Z,4.25
2018-12-30T13:25:14.171Z,5.25
2018-12-30T13:27:45.194Z,4.65
2018-12-30T13:30:16.275Z,4.35
2018-12-30T13:32:47.083Z,4.55
2018-12-30T13:35:18.095Z,4.58
2018-12-30T13:37:48.886Z,4.70
2018-12-30T13:40:20.315Z,4.60
2018-12-30T13:42:51.410Z,4.47
2018-12-30T13:45:22.433Z,4.53
2018-12-30T13:47:53.210Z,4.22
2018-12-30T13:50:24.010Z,4.37
2018-12-30T13:52:54.811Z,4.60
2018-12-30T13:55:25.581Z,3.75
2018-12-30T13:57:56.378Z,4.53
2018-12-30T14:00:27.404Z,4.17
2018-12-30T14:02:58.439Z,3.95
2018-12-30T14:05:29.430Z,4.00
2018-12-30T14:08:00.452Z,4.55
2018-12-30T14:10:31.237Z,4.20
2018-12-30T14:13:02.097Z,4.33
2018-12-30T14:15:32.861Z,4.03
2018-12-30T14:18:03.980Z,5.55
2018-12-30T14:20:34.787Z,3.65
2018-12-30T14:23:05.778Z,4.20
2018-12-30T14:25:36.570Z,4.53
2018-12-30T14:28:07.347Z,4.72
2018-12-30T14:30:38.154Z,4.17
2018-12-30T14:33:09.162Z,4.00
2018-12-30T14:35:39.965Z,4.45
2018-12-30T14:38:11.007Z,4.30
2018-12-30T14:40:41.805Z,4.70
2018-12-30T14:43:12.583Z,4.40
2018-12-30T14:45:43.615Z,4.15
2018-12-30T14:48:14.409Z,5.10
2018-12-30T14:50:45.189Z,3.95
2018-12-30T14:53:19.350Z,4.10
2018-12-30T14:55:48.698Z,4.33
2018-12-30T14:58:19.473Z,3.87
2018-12-30T15:01:00.231Z,4.90
2018-12-30T15:03:35.554Z,4.35
2018-12-30T15:06:18.433Z,5.00
2018-12-30T15:08:53.631Z,4.00
2018-12-30T15:11:27.472Z,4.17
2018-12-30T15:14:03.572Z,4.35
2018-12-30T15:16:37.490Z,4.28
2018-12-30T15:19:10.529Z,4.42
2018-12-30T15:21:46.898Z,4.15
2018-12-30T15:25:18.173Z,4.35
2018-12-30T15:28:05.704Z,4.08
2018-12-30T15:30:36.748Z,4.70
2018-12-30T15:33:07.563Z,3.95
2018-12-30T15:35:38.351Z,3.80
2018-12-30T15:38:09.130Z,4.17
2018-12-30T15:40:40.145Z,3.52
2018-12-30T15:43:10.994Z,3.65
2018-12-30T15:45:41.856Z,4.20
2018-12-30T15:48:12.613Z,4.30
2018-12-30T15:50:43.414Z,3.40
2018-12-30T15:53:14.283Z,4.08
2018-12-30T15:55:45.078Z,5.12
2018-12-30T15:58:16.110Z,3.60
2018-12-30T16:00:46.871Z,3.90
2018-12-30T16:03:17.650Z,3.70
2018-12-30T16:05:48.140Z,3.95
2018-12-30T16:08:18.997Z,3.83
2018-12-30T16:10:49.769Z,4.42
2018-12-30T16:13:20.568Z,3.62
2018-12-30T16:15:51.322Z,4.00
2018-12-30T16:18:22.104Z,3.85
2018-12-30T16:20:53.107Z,4.22
2018-12-30T16:23:23.906Z,3.85
2018-12-30T16:25:54.670Z,3.83
2018-12-30T16:28:25.467Z,3.20
2018-12-30T16:30:56.236Z,3.52
2018-12-30T16:33:27.017Z,2.90
2018-12-30T16:35:57.778Z,3.10
2018-12-30T16:38:28.572Z,2.67
2018-12-30T16:40:59.561Z,3.02
2018-12-30T16:43:30.578Z,3.33
2018-12-30T16:46:01.583Z,3.52
2018-12-30T16:48:32.374Z,3.55
2018-12-30T16:51:03.146Z,3.55
2018-12-30T16:53:33.946Z,3.83
2018-12-30T16:56:04.822Z,3.77
2018-12-30T16:58:38.278Z,2.77
2018-12-30T17:01:09.072Z,3.30
2018-12-30T17:03:40.104Z,2.75
2018-12-30T17:06:10.918Z,3.15
2018-12-30T17:08:41.923Z,2.55
2018-12-30T17:11:12.950Z,2.67
2018-12-30T17:13:43.707Z,2.98
2018-12-30T17:16:14.517Z,3.22
2018-12-30T17:18:45.298Z,2.85
2018-12-30T17:21:16.071Z,2.62
2018-12-30T17:23:46.873Z,2.85
2018-12-30T17:26:17.657Z,2.83
2018-12-30T17:28:48.476Z,2.87
2018-12-30T17:31:19.238Z,3.25
2018-12-30T17:33:50.058Z,3.40
2018-12-30T17:36:20.833Z,3.27
2018-12-30T17:38:51.647Z,3.35
2018-12-30T17:41:22.459Z,3.52
2018-12-30T17:43:53.510Z,3.05
2018-12-30T17:46:24.289Z,3.33
2018-12-30T17:48:55.108Z,4.80
2018-12-30T17:51:25.914Z,3.52
2018-12-30T17:53:56.694Z,3.58
2018-12-30T17:56:27.564Z,3.67
2018-12-30T17:58:58.347Z,4.42
2018-12-30T18:01:29.171Z,4.40
2018-12-30T18:03:59.950Z,4.00
2018-12-30T18:06:30.737Z,4.00
2018-12-30T18:09:01.526Z,3.90
2018-12-30T18:11:32.552Z,3.60
2018-12-30T18:14:03.305Z,3.70
2018-12-30T18:16:34.135Z,4.53
2018-12-30T18:19:04.920Z,4.30
2018-12-30T18:21:35.741Z,4.25
2018-12-30T18:24:06.540Z,5.10
2018-12-30T18:26:37.922Z,4.35
2018-12-30T18:29:09.279Z,4.53
2018-12-30T18:31:40.285Z,4.17
2018-12-30T18:34:11.062Z,4.20
2018-12-30T18:36:41.842Z,4.08
2018-12-30T18:39:12.629Z,4.80
2018-12-30T18:41:43.409Z,4.40
2018-12-30T18:44:14.450Z,4.28
2018-12-30T18:46:45.475Z,4.35
2018-12-30T18:49:16.500Z,4.47
2018-12-30T18:51:47.490Z,4.75
2018-12-30T18:54:18.287Z,5.03
2018-12-30T18:56:49.097Z,4.17
2018-12-30T18:59:20.191Z,5.08
2018-12-30T19:01:51.232Z,4.50
2018-12-30T19:04:22.035Z,4.85
2018-12-30T19:06:53.125Z,4.78
2018-12-30T19:09:24.440Z,5.35
2018-12-30T19:11:55.462Z,5.03
2018-12-30T19:14:26.622Z,5.30
2018-12-30T19:16:57.655Z,5.40
2018-12-30T19:19:28.714Z,5.62
2018-12-30T19:21:59.765Z,5.35
2018-12-30T19:24:30.785Z,5.92
2018-12-30T19:27:01.654Z,5.72
2018-12-30T19:29:32.971Z,6.33
2018-12-30T19:32:03.754Z,5.75
2018-12-30T19:34:37.434Z,6.40
2018-12-30T19:37:08.228Z,6.53
2018-12-30T19:39:39.367Z,6.35
2018-12-30T19:42:10.966Z,6.60
2018-12-30T19:44:41.823Z,7.10
2018-12-30T19:47:12.629Z,6.05
2018-12-30T19:49:43.407Z,7.83
2018-12-30T19:52:14.456Z,6.95
2018-12-30T19:54:45.277Z,6.60
2018-12-30T19:57:16.129Z,6.42
2018-12-30T19:59:46.944Z,6.28
2018-12-30T20:02:19.573Z,6.62
2018-12-30T20:04:50.435Z,6.22
2018-12-30T20:07:21.335Z,5.85
2018-12-30T20:09:52.184Z,5.95
2018-12-30T20:12:22.984Z,6.58
2018-12-30T20:14:53.769Z,5.90
2018-12-30T20:17:24.565Z,6.70
2018-12-30T20:19:56.183Z,6.28
2018-12-30T20:22:27.246Z,5.70
2018-12-30T20:24:58.066Z,6.05
2018-12-30T20:27:28.870Z,6.35
2018-12-30T20:30:00.084Z,5.62
2018-12-30T20:32:31.048Z,7.75
2018-12-30T20:35:02.762Z,6.55
2018-12-30T20:37:34.327Z,6.08
2018-12-30T20:40:05.699Z,6.62
2018-12-30T20:42:36.782Z,6.60
2018-12-30T20:45:07.570Z,6.28
2018-12-30T20:47:38.603Z,6.12
2018-12-30T20:50:09.427Z,6.85
2018-12-30T20:52:40.234Z,6.62
2018-12-30T20:55:14.484Z,6.97
2018-12-30T20:57:47.507Z,7.30
2018-12-30T21:00:18.551Z,7.45
2018-12-30T21:02:49.339Z,6.65
2018-12-30T21:05:20.162Z,6.37
2018-12-30T21:07:50.935Z,6.80
2018-12-30T21:10:21.992Z,6.87
2018-12-30T21:12:52.891Z,6.83
2018-12-30T21:15:23.704Z,7.47
2018-12-30T21:17:54.499Z,6.55
2018-12-30T21:20:25.321Z,6.40
2018-12-30T21:22:56.346Z,7.28
2018-12-30T21:25:27.111Z,6.97
2018-12-30T21:27:57.914Z,6.92
2018-12-30T21:30:28.668Z,6.33
2018-12-30T21:32:59.446Z,6.55
2018-12-30T21:35:30.467Z,6.37
2018-12-30T21:38:01.297Z,6.60
2018-12-30T21:40:32.058Z,6.67
2018-12-30T21:43:02.867Z,6.22
2018-12-30T21:45:33.647Z,6.03
2018-12-30T21:48:04.678Z,6.35
2018-12-30T21:50:35.483Z,6.67
2018-12-30T21:53:06.282Z,6.47
2018-12-30T21:55:37.154Z,5.75
2018-12-30T21:58:08.008Z,5.92
2018-12-30T22:00:38.854Z,5.80
2018-12-30T22:03:09.706Z,5.62
2018-12-30T22:05:40.730Z,5.53
2018-12-30T22:08:11.591Z,5.22
2018-12-30T22:10:42.663Z,5.78
2018-12-30T22:13:13.450Z,5.30
2018-12-30T22:15:44.295Z,5.40
2018-12-30T22:18:15.337Z,5.33
2018-12-30T22:20:46.441Z,4.55
2018-12-30T22:23:17.599Z,5.00
2018-12-30T22:25:52.371Z,4.42
2018-12-30T22:28:23.289Z,4.83
2018-12-30T22:30:55.362Z,4.37
2018-12-30T22:33:26.392Z,5.80
2018-12-30T22:35:57.194Z,5.35
2018-12-30T22:38:28.251Z,4.92
2018-12-30T22:40:59.038Z,5.30
2018-12-30T22:43:29.858Z,4.50
2018-12-30T22:46:00.655Z,5.22
2018-12-30T22:48:31.734Z,5.10
2018-12-30T22:51:02.528Z,4.92
2018-12-30T22:53:33.301Z,5.05
2018-12-30T22:56:04.062Z,4.78
2018-12-30T22:58:34.863Z,5.53
2018-12-30T23:01:07.271Z,4.97
2018-12-30T23:03:38.079Z,5.12
2018-12-30T23:06:09.195Z,5.37
2018-12-30T23:08:40.018Z,5.47
2018-12-30T23:11:10.885Z,5.22
2018-12-30T23:13:41.923Z,5.72
2018-12-30T23:16:12.724Z,5.95
2018-12-30T23:18:43.537Z,6.42
2018-12-30T23:21:14.326Z,5.37
2018-12-30T23:23:45.095Z,6.03
2018-12-30T23:26:15.895Z,6.17
2018-12-30T23:28:46.650Z,5.45
2018-12-30T23:31:20.115Z,5.40
2018-12-30T23:33:51.002Z,5.85
2018-12-30T23:36:23.766Z,5.78
2018-12-30T23:38:55.590Z,5.58
2018-12-30T23:41:26.660Z,6.03
2018-12-30T23:43:57.681Z,5.75
2018-12-30T23:46:30.232Z,5.80
2018-12-30T23:49:01.247Z,6.22
2018-12-30T23:51:32.042Z,5.55
2018-12-30T23:54:02.833Z,5.40
2018-12-30T23:56:33.818Z,5.72
2018-12-30T23:59:04.855Z,6.17
